Time;durP1;ratioP1;P1;durP2;ratioP2;P2;SDS_P1;SDS_P2;PMS_P1;PMS_P2;Temp;Humidity;BMP_temperature;BMP_pressure;BME280_temperature;BME280_humidity;BME280_pressure;Samples;Min_cycle;Max_cycle;Signal;HPM_P1;HPM_P2
2022/12/14 00:00:29;;;;;;;18.65;17.00;;;;;;;;;;1042310;28;20048;-74
2022/12/14 00:01:05;;;;;;;19.40;17.52;;;;;;;;;;1041185;28;20025;-74
2022/12/14 00:01:35;;;;;;;17.48;15.82;;;;;;;;;;1042142;28;20025;-74
2022/12/14 00:02:06;;;;;;;21.38;19.23;;;;;;;;;;1043731;28;20060;-74
2022/12/14 00:02:36;;;;;;;15.68;14.20;;;;;;;;;;1043493;28;20049;-75
2022/12/14 00:03:07;;;;;;;24.67;15.88;;;;;;;;;;1043373;28;20443;-75
2022/12/14 00:03:38;;;;;;;10.50;9.48;;;;;;;;;;1041036;28;20547;-75
2022/12/14 00:04:08;;;;;;;21.63;16.08;;;;;;;;;;1040508;28;20029;-75
2022/12/14 00:04:39;;;;;;;14.63;13.45;;;;;;;;;;1043449;28;20405;-75
2022/12/14 00:05:10;;;;;;;17.27;12.35;;;;;;;;;;1042809;28;20030;-75
2022/12/14 00:05:40;;;;;;;13.23;11.88;;;;;;;;;;1041617;28;20021;-75
2022/12/14 00:06:15;;;;;;;14.25;13.05;;;;;;;;;;1042985;28;20087;-75
2022/12/14 00:06:46;;;;;;;24.30;14.98;;;;;;;;;;1038343;28;20029;-75
2022/12/14 00:07:16;;;;;;;12.60;11.50;;;;;;;;;;1036548;28;20030;-75
2022/12/14 00:07:47;;;;;;;16.65;14.90;;;;;;;;;;1037602;28;20430;-75
2022/12/14 00:08:17;;;;;;;15.90;12.90;;;;;;;;;;1037742;28;20060;-75
2022/12/14 00:08:49;;;;;;;14.77;12.18;;;;;;;;;;1041672;28;20115;-75
2022/12/14 00:09:19;;;;;;;16.05;13.40;;;;;;;;;;1041368;28;20480;-75
2022/12/14 00:09:50;;;;;;;14.70;12.90;;;;;;;;;;1041835;28;20031;-75
2022/12/14 00:10:20;;;;;;;18.38;15.85;;;;;;;;;;1041453;28;20024;-75
2022/12/14 00:10:51;;;;;;;18.70;17.23;;;;;;;;;;1043339;28;20086;-75
2022/12/14 00:11:22;;;;;;;18.15;16.33;;;;;;;;;;1042096;28;20187;-75
2022/12/14 00:11:52;;;;;;;15.48;13.85;;;;;;;;;;1041982;28;20406;-75
2022/12/14 00:12:23;;;;;;;15.48;14.07;;;;;;;;;;1043733;28;20067;-75
2022/12/14 00:12:53;;;;;;;15.13;13.15;;;;;;;;;;1042034;28;20060;-75
2022/12/14 00:13:24;;;;;;;14.88;13.50;;;;;;;;;;1037695;28;20045;-75
2022/12/14 00:13:57;;;;;;;18.55;13.65;;;;;;;;;;1037951;28;20032;-75
2022/12/14 00:14:28;;;;;;;11.98;11.07;;;;;;;;;;1039680;28;20017;-75
2022/12/14 00:14:58;;;;;;;31.73;20.23;;;;;;;;;;1037773;28;20018;-75
2022/12/14 00:15:29;;;;;;;26.33;16.05;;;;;;;;;;1041592;28;20059;-75
2022/12/14 00:16:03;;;;;;;22.83;11.60;;;;;;;;;;1041862;28;20029;-75
2022/12/14 00:16:35;;;;;;;27.02;16.33;;;;;;;;;;1045483;28;20048;-75
2022/12/14 00:17:05;;;;;;;22.77;15.55;;;;;;;;;;1042620;28;20043;-75
2022/12/14 00:17:36;;;;;;;15.35;13.82;;;;;;;;;;1042142;28;20431;-75
2022/12/14 00:18:06;;;;;;;17.30;15.95;;;;;;;;;;1041537;28;20029;-74
2022/12/14 00:18:37;;;;;;;15.27;13.57;;;;;;;;;;1041527;28;20485;-74
2022/12/14 00:19:09;;;;;;;26.77;21.83;;;;;;;;;;1041974;28;20041;-74
2022/12/14 00:19:40;;;;;;;16.02;10.52;;;;;;;;;;1041457;28;20611;-75
2022/12/14 00:20:10;;;;;;;14.52;13.27;;;;;;;;;;1043034;28;20017;-75
2022/12/14 00:20:41;;;;;;;16.65;14.25;;;;;;;;;;1043414;28;20081;-75
2022/12/14 00:21:13;;;;;;;16.05;14.48;;;;;;;;;;1042591;28;20114;-75
2022/12/14 00:21:43;;;;;;;25.98;15.70;;;;;;;;;;1043713;28;20457;-75
2022/12/14 00:22:14;;;;;;;43.05;20.77;;;;;;;;;;1040949;28;20029;-75
2022/12/14 00:22:44;;;;;;;15.68;14.30;;;;;;;;;;1043288;28;20036;-75
2022/12/14 00:23:15;;;;;;;12.70;11.73;;;;;;;;;;1044022;28;20417;-75
2022/12/14 00:23:46;;;;;;;11.57;10.45;;;;;;;;;;1042057;28;20025;-75
2022/12/14 00:24:16;;;;;;;33.08;20.48;;;;;;;;;;1041579;28;20462;-75
2022/12/14 00:24:47;;;;;;;24.42;12.77;;;;;;;;;;1041539;28;20029;-74
2022/12/14 00:25:18;;;;;;;21.33;15.43;;;;;;;;;;1042028;28;20035;-74
2022/12/14 00:25:48;;;;;;;15.23;13.68;;;;;;;;;;1043493;28;20009;-75
2022/12/14 00:26:23;;;;;;;14.90;13.60;;;;;;;;;;1038766;28;20525;-75
2022/12/14 00:26:54;;;;;;;16.35;13.82;;;;;;;;;;1041239;28;20366;-75
2022/12/14 00:27:25;;;;;;;18.77;17.05;;;;;;;;;;1041451;28;20108;-75
2022/12/14 00:27:56;;;;;;;31.00;13.35;;;;;;;;;;1041637;28;20424;-75
2022/12/14 00:28:26;;;;;;;17.65;15.93;;;;;;;;;;1042763;28;20021;-75
2022/12/14 00:28:57;;;;;;;15.43;14.02;;;;;;;;;;1041703;28;20032;-75
2022/12/14 00:29:28;;;;;;;15.90;14.38;;;;;;;;;;1044400;28;20052;-75
2022/12/14 00:29:58;;;;;;;27.17;9.95;;;;;;;;;;1041991;28;20075;-75
2022/12/14 00:30:29;;;;;;;29.45;16.67;;;;;;;;;;1044063;28;20039;-75
2022/12/14 00:31:00;;;;;;;19.40;17.63;;;;;;;;;;1041439;28;20116;-75
2022/12/14 00:31:31;;;;;;;14.02;12.50;;;;;;;;;;1041644;28;20028;-75
2022/12/14 00:32:01;;;;;;;16.65;15.02;;;;;;;;;;1041440;28;20063;-75
2022/12/14 00:32:33;;;;;;;23.00;18.10;;;;;;;;;;1043788;28;20120;-75
2022/12/14 00:33:03;;;;;;;10.85;10.15;;;;;;;;;;1041229;28;20029;-75
2022/12/14 00:33:34;;;;;;;14.77;13.40;;;;;;;;;;1038902;28;20028;-75
2022/12/14 00:34:05;;;;;;;19.58;14.30;;;;;;;;;;1043203;28;20021;-75
2022/12/14 00:34:35;;;;;;;14.43;11.18;;;;;;;;;;1044384;28;20052;-75
2022/12/14 00:35:07;;;;;;;13.05;11.73;;;;;;;;;;1041318;28;20021;-75
2022/12/14 00:35:38;;;;;;;14.40;12.23;;;;;;;;;;1041055;28;20099;-75
2022/12/14 00:36:09;;;;;;;14.60;13.10;;;;;;;;;;1041449;28;20467;-75
2022/12/14 00:36:39;;;;;;;13.75;11.20;;;;;;;;;;1041633;28;20071;-75
2022/12/14 00:37:10;;;;;;;12.05;10.82;;;;;;;;;;1042661;28;20103;-75
2022/12/14 00:37:40;;;;;;;44.20;16.30;;;;;;;;;;1042092;28;20024;-75
2022/12/14 00:38:11;;;;;;;12.45;11.27;;;;;;;;;;1042500;28;20025;-75
2022/12/14 00:38:42;;;;;;;12.38;10.35;;;;;;;;;;1042129;28;20393;-75
2022/12/14 00:39:12;;;;;;;18.05;10.95;;;;;;;;;;1042081;28;20045;-75
2022/12/14 00:39:43;;;;;;;15.07;13.45;;;;;;;;;;1045180;28;20026;-75
2022/12/14 00:40:14;;;;;;;14.60;10.85;;;;;;;;;;1041683;28;20021;-75
2022/12/14 00:40:44;;;;;;;19.45;15.52;;;;;;;;;;1043371;28;20068;-75
2022/12/14 00:41:15;;;;;;;14.73;13.15;;;;;;;;;;1041802;28;20033;-75
2022/12/14 00:41:45;;;;;;;16.88;13.60;;;;;;;;;;1041946;28;20009;-75
2022/12/14 00:42:16;;;;;;;11.20;10.43;;;;;;;;;;1043037;28;20385;-75
2022/12/14 00:42:46;;;;;;;39.15;14.27;;;;;;;;;;1042713;28;20410;-74
2022/12/14 00:43:17;;;;;;;24.52;22.00;;;;;;;;;;1041908;28;20029;-74
2022/12/14 00:43:47;;;;;;;18.27;13.93;;;;;;;;;;1042296;28;20458;-74
2022/12/14 00:44:18;;;;;;;27.33;15.52;;;;;;;;;;1044604;28;20082;-74
2022/12/14 00:44:48;;;;;;;19.35;11.38;;;;;;;;;;1041827;28;20120;-74
2022/12/14 00:45:19;;;;;;;15.40;13.23;;;;;;;;;;1041405;28;20024;-74
2022/12/14 00:45:50;;;;;;;11.00;10.00;;;;;;;;;;1039614;28;20028;-74
2022/12/14 00:46:20;;;;;;;16.00;11.82;;;;;;;;;;1043557;28;20021;-74
2022/12/14 00:46:51;;;;;;;23.38;15.95;;;;;;;;;;1043372;28;20117;-74
2022/12/14 00:47:21;;;;;;;15.90;12.30;;;;;;;;;;1042644;28;20198;-74
2022/12/14 00:47:52;;;;;;;16.05;14.48;;;;;;;;;;1042353;28;20446;-74
2022/12/14 00:48:23;;;;;;;14.25;12.90;;;;;;;;;;1037762;28;20467;-74
2022/12/14 00:48:54;;;;;;;10.05;9.35;;;;;;;;;;1042039;28;20079;-75
2022/12/14 00:49:24;;;;;;;16.98;15.18;;;;;;;;;;1042114;28;20075;-75
2022/12/14 00:49:55;;;;;;;17.48;10.40;;;;;;;;;;1043259;28;20539;-75
2022/12/14 00:50:26;;;;;;;22.30;12.90;;;;;;;;;;1042466;28;20024;-75
2022/12/14 00:50:56;;;;;;;10.07;8.88;;;;;;;;;;1041841;28;20057;-75
2022/12/14 00:51:27;;;;;;;18.20;16.52;;;;;;;;;;1041946;28;20103;-75
2022/12/14 00:51:57;;;;;;;25.00;17.80;;;;;;;;;;1041553;28;20170;-74
2022/12/14 00:52:28;;;;;;;21.85;13.40;;;;;;;;;;1044245;28;20024;-74
2022/12/14 00:52:58;;;;;;;19.08;11.82;;;;;;;;;;1039942;28;20020;-74
2022/12/14 00:53:29;;;;;;;18.10;13.93;;;;;;;;;;1039812;28;20028;-74
2022/12/14 00:53:59;;;;;;;18.98;14.65;;;;;;;;;;1043907;28;20021;-74
2022/12/14 00:54:30;;;;;;;15.25;12.60;;;;;;;;;;1041952;28;20025;-74
2022/12/14 00:55:01;;;;;;;17.10;15.70;;;;;;;;;;1041521;28;20021;-74
2022/12/14 00:55:41;;;;;;;20.60;18.45;;;;;;;;;;1041472;28;20036;-74
2022/12/14 00:56:12;;;;;;;18.77;13.63;;;;;;;;;;1043168;28;20021;-74
2022/12/14 00:56:42;;;;;;;11.25;10.23;;;;;;;;;;1044337;28;20579;-74
2022/12/14 00:57:13;;;;;;;17.85;14.23;;;;;;;;;;1041739;28;20384;-74
2022/12/14 00:57:43;;;;;;;16.65;15.25;;;;;;;;;;1042333;28;20013;-74
2022/12/14 00:58:15;;;;;;;16.90;15.18;;;;;;;;;;1041371;28;20020;-74
2022/12/14 00:58:52;;;;;;;21.85;14.60;;;;;;;;;;1041239;28;20083;-75
2022/12/14 00:59:22;;;;;;;15.95;13.48;;;;;;;;;;1039650;28;20031;-75
2022/12/14 00:59:53;;;;;;;22.98;14.63;;;;;;;;;;1041602;28;20021;-75
2022/12/14 01:00:23;;;;;;;13.48;10.50;;;;;;;;;;1038742;28;20026;-75
2022/12/14 01:01:01;;;;;;;11.73;10.45;;;;;;;;;;1042574;28;20025;-75
2022/12/14 01:01:31;;;;;;;21.40;13.95;;;;;;;;;;1042352;28;20175;-75
2022/12/14 01:02:02;;;;;;;10.45;9.50;;;;;;;;;;1041501;28;20090;-75
2022/12/14 01:02:33;;;;;;;17.65;11.57;;;;;;;;;;1041600;28;20107;-75
2022/12/14 01:03:04;;;;;;;18.95;13.20;;;;;;;;;;1043050;28;20033;-75
2022/12/14 01:03:34;;;;;;;8.25;7.65;;;;;;;;;;1042053;28;20025;-75
2022/12/14 01:04:18;;;;;;;13.38;12.20;;;;;;;;;;1040995;28;20029;-76
2022/12/14 01:04:48;;;;;;;12.30;10.80;;;;;;;;;;1040630;28;20032;-75
2022/12/14 01:05:19;;;;;;;15.38;12.63;;;;;;;;;;1041551;28;20037;-75
2022/12/14 01:05:49;;;;;;;12.88;11.70;;;;;;;;;;1042632;28;20045;-75
2022/12/14 01:06:21;;;;;;;11.75;10.68;;;;;;;;;;1042663;28;20115;-75
2022/12/14 01:06:52;;;;;;;17.30;13.48;;;;;;;;;;1039218;28;20021;-75
2022/12/14 01:07:23;;;;;;;19.92;17.17;;;;;;;;;;1042157;28;20021;-75
2022/12/14 01:07:53;;;;;;;28.17;19.23;;;;;;;;;;1042820;28;20025;-75
2022/12/14 01:08:24;;;;;;;13.55;12.30;;;;;;;;;;1041694;28;20074;-75
2022/12/14 01:08:54;;;;;;;41.83;18.92;;;;;;;;;;1043522;28;20013;-76
2022/12/14 01:09:25;;;;;;;20.17;13.88;;;;;;;;;;1036588;28;20057;-75
2022/12/14 01:09:56;;;;;;;16.45;15.13;;;;;;;;;;1036050;28;20029;-75
2022/12/14 01:10:26;;;;;;;22.10;14.93;;;;;;;;;;1034339;28;20114;-76
2022/12/14 01:10:57;;;;;;;18.67;14.40;;;;;;;;;;1032893;28;21490;-75
2022/12/14 01:11:28;;;;;;;19.88;16.30;;;;;;;;;;1037744;28;20083;-75
2022/12/14 01:11:58;;;;;;;13.27;12.07;;;;;;;;;;1039049;28;20021;-75
2022/12/14 01:12:29;;;;;;;14.32;13.10;;;;;;;;;;1043512;28;20029;-75
2022/12/14 01:12:59;;;;;;;16.42;13.93;;;;;;;;;;1042968;28;20017;-75
2022/12/14 01:13:30;;;;;;;17.30;15.70;;;;;;;;;;1040898;28;20017;-75
2022/12/14 01:14:01;;;;;;;12.90;11.85;;;;;;;;;;1041713;28;20359;-75
2022/12/14 01:14:31;;;;;;;13.13;12.05;;;;;;;;;;1043827;28;20043;-75
2022/12/14 01:15:02;;;;;;;18.25;16.83;;;;;;;;;;1042393;28;20728;-75
2022/12/14 01:15:35;;;;;;;25.77;13.18;;;;;;;;;;1042814;28;20033;-75
2022/12/14 01:16:13;;;;;;;14.88;10.15;;;;;;;;;;1045054;28;20108;-75
2022/12/14 01:16:44;;;;;;;10.00;9.05;;;;;;;;;;1037329;28;20014;-76
2022/12/14 01:17:15;;;;;;;27.63;20.30;;;;;;;;;;1041245;28;20021;-75
2022/12/14 01:17:45;;;;;;;12.23;11.00;;;;;;;;;;1042915;28;20025;-75
2022/12/14 01:18:16;;;;;;;15.63;14.27;;;;;;;;;;1042843;28;20108;-75
2022/12/14 01:18:47;;;;;;;47.50;14.27;;;;;;;;;;1042183;28;20033;-76
2022/12/14 01:19:18;;;;;;;13.45;12.27;;;;;;;;;;1043561;28;20012;-76
2022/12/14 01:19:48;;;;;;;15.05;13.88;;;;;;;;;;1042778;28;20393;-75
2022/12/14 01:20:19;;;;;;;11.68;10.80;;;;;;;;;;1037396;28;20037;-75
2022/12/14 01:20:49;;;;;;;14.23;12.35;;;;;;;;;;1037076;28;20029;-75
2022/12/14 01:21:21;;;;;;;18.10;13.18;;;;;;;;;;1032368;28;20029;-75
2022/12/14 01:21:52;;;;;;;10.23;9.30;;;;;;;;;;1034559;28;20128;-74
2022/12/14 01:22:22;;;;;;;14.57;11.13;;;;;;;;;;1036747;28;20035;-74
2022/12/14 01:22:55;;;;;;;11.18;10.10;;;;;;;;;;1038793;28;20022;-75
2022/12/14 01:23:37;;;;;;;19.40;14.55;;;;;;;;;;1039608;28;20029;-76
2022/12/14 01:24:08;;;;;;;19.40;17.33;;;;;;;;;;1042384;28;20028;-74
2022/12/14 01:24:39;;;;;;;17.13;15.43;;;;;;;;;;1039254;28;20017;-74
2022/12/14 01:25:10;;;;;;;16.13;14.85;;;;;;;;;;1037191;28;20142;-74
2022/12/14 01:25:41;;;;;;;12.18;11.13;;;;;;;;;;1040907;28;20045;-74
2022/12/14 01:26:12;;;;;;;13.13;11.85;;;;;;;;;;1043172;28;20040;-74
2022/12/14 01:26:43;;;;;;;16.23;14.60;;;;;;;;;;1041977;28;20116;-75
2022/12/14 01:27:23;;;;;;;12.85;11.80;;;;;;;;;;1037830;28;20558;-77
2022/12/14 01:27:54;;;;;;;17.80;16.08;;;;;;;;;;1038733;28;20067;-76
2022/12/14 01:28:25;;;;;;;21.55;15.30;;;;;;;;;;1038710;28;20049;-76
2022/12/14 01:28:57;;;;;;;14.38;12.95;;;;;;;;;;1034797;28;20049;-75
2022/12/14 01:29:34;;;;;;;11.38;10.27;;;;;;;;;;1033779;28;20036;-75
2022/12/14 01:30:04;;;;;;;18.60;17.00;;;;;;;;;;1038309;28;20093;-76
2022/12/14 01:30:38;;;;;;;7.05;6.53;;;;;;;;;;1038956;28;20097;-76
2022/12/14 01:31:12;;;;;;;12.40;11.25;;;;;;;;;;1040798;28;20029;-74
2022/12/14 01:31:43;;;;;;;21.33;17.17;;;;;;;;;;1041236;28;20018;-76
2022/12/14 01:32:13;;;;;;;12.77;9.40;;;;;;;;;;1042251;28;20520;-75
2022/12/14 01:32:45;;;;;;;14.82;13.35;;;;;;;;;;1042347;28;20053;-76
2022/12/14 01:33:19;;;;;;;25.75;9.65;;;;;;;;;;1042050;28;20029;-77
2022/12/14 01:33:50;;;;;;;14.82;12.63;;;;;;;;;;1038158;28;20099;-75
2022/12/14 01:34:21;;;;;;;11.80;10.77;;;;;;;;;;1041080;28;20091;-77
2022/12/14 01:34:51;;;;;;;16.65;14.77;;;;;;;;;;1042578;28;20070;-75
2022/12/14 01:35:22;;;;;;;15.35;9.70;;;;;;;;;;1041906;28;20610;-75
2022/12/14 01:35:54;;;;;;;21.58;11.82;;;;;;;;;;1040602;28;20092;-75
2022/12/14 01:36:26;;;;;;;18.85;16.83;;;;;;;;;;1038827;28;20036;-75
2022/12/14 01:36:56;;;;;;;11.15;10.32;;;;;;;;;;1041012;28;20510;-76
2022/12/14 01:37:33;;;;;;;12.45;11.40;;;;;;;;;;1041348;28;20025;-76
2022/12/14 01:38:03;;;;;;;16.17;13.60;;;;;;;;;;1040392;28;20025;-76
2022/12/14 01:38:34;;;;;;;16.42;12.00;;;;;;;;;;1040212;28;20595;-76
2022/12/14 01:39:08;;;;;;;22.60;15.43;;;;;;;;;;1039447;28;20040;-75
2022/12/14 01:39:43;;;;;;;15.77;12.32;;;;;;;;;;1041439;28;20013;-75
2022/12/14 01:40:15;;;;;;;12.93;11.90;;;;;;;;;;1040320;28;20032;-75
2022/12/14 01:40:46;;;;;;;13.60;12.35;;;;;;;;;;1040052;28;20075;-75
2022/12/14 01:41:39;;;;;;;13.00;11.88;;;;;;;;;;1039237;28;20048;-75
2022/12/14 01:42:11;;;;;;;20.45;11.40;;;;;;;;;;1036951;28;20485;-73
2022/12/14 01:42:42;;;;;;;13.07;11.85;;;;;;;;;;1033005;28;20041;-77
2022/12/14 01:43:26;;;;;;;11.68;8.68;;;;;;;;;;1031686;28;20107;-76
2022/12/14 01:44:02;;;;;;;15.25;13.38;;;;;;;;;;1033440;28;20173;-77
2022/12/14 01:44:33;;;;;;;13.43;11.88;;;;;;;;;;1033616;28;20559;-78
2022/12/14 01:45:06;;;;;;;14.07;12.45;;;;;;;;;;1036168;28;20025;-78
2022/12/14 01:45:37;;;;;;;20.13;14.77;;;;;;;;;;1033645;28;20033;-77
2022/12/14 01:46:11;;;;;;;16.67;10.40;;;;;;;;;;1035137;28;20504;-76
2022/12/14 01:46:45;;;;;;;23.70;13.20;;;;;;;;;;1034177;28;20038;-75
2022/12/14 01:47:48;;;;;;;16.88;13.88;;;;;;;;;;1034223;28;20033;-76
2022/12/14 01:48:18;;;;;;;23.98;14.18;;;;;;;;;;1025520;28;20033;-77
2022/12/14 01:48:50;;;;;;;16.95;13.13;;;;;;;;;;1023932;28;20114;-76
2022/12/14 01:49:38;;;;;;;16.65;13.63;;;;;;;;;;1035773;28;20605;-76
2022/12/14 01:50:17;;;;;;;10.90;8.90;;;;;;;;;;1039316;28;20021;-76
2022/12/14 01:50:48;;;;;;;21.17;11.87;;;;;;;;;;1038302;28;20017;-77
2022/12/14 01:51:25;;;;;;;17.77;8.95;;;;;;;;;;1039176;28;20591;-76
2022/12/14 01:52:02;;;;;;;11.57;10.50;;;;;;;;;;1040343;28;20089;-79
2022/12/14 01:52:35;;;;;;;13.43;12.18;;;;;;;;;;1040794;28;20028;-78
2022/12/14 01:53:11;;;;;;;15.15;12.52;;;;;;;;;;1040628;28;20024;-77
2022/12/14 01:53:42;;;;;;;30.80;15.88;;;;;;;;;;1044731;28;20017;-82
2022/12/14 01:54:17;;;;;;;10.88;10.10;;;;;;;;;;1039531;28;20022;-80
2022/12/14 01:55:08;;;;;;;12.13;10.88;;;;;;;;;;1041487;28;20515;-82
2022/12/14 01:55:41;;;;;;;19.60;16.13;;;;;;;;;;1037789;28;20025;-80
2022/12/14 01:56:12;;;;;;;8.73;7.75;;;;;;;;;;1041553;28;20025;-77
2022/12/14 01:56:43;;;;;;;20.08;14.20;;;;;;;;;;1039469;28;20064;-79
2022/12/14 01:57:16;;;;;;;14.45;11.98;;;;;;;;;;1035080;28;20033;-76
2022/12/14 01:57:53;;;;;;;24.15;17.42;;;;;;;;;;1038787;28;20041;-76
2022/12/14 01:58:27;;;;;;;16.17;10.73;;;;;;;;;;1040116;28;20028;-77
2022/12/14 01:59:03;;;;;;;10.48;9.57;;;;;;;;;;1043676;28;20026;-82
2022/12/14 01:59:36;;;;;;;13.68;12.68;;;;;;;;;;1038986;28;20528;-76
2022/12/14 02:00:07;;;;;;;7.45;6.85;;;;;;;;;;1039783;28;20025;-73
2022/12/14 02:00:38;;;;;;;5.93;5.53;;;;;;;;;;1039119;28;20091;-76
2022/12/14 02:01:10;;;;;;;11.50;9.95;;;;;;;;;;1040329;28;20083;-76
2022/12/14 02:01:40;;;;;;;12.13;10.90;;;;;;;;;;1042048;28;20024;-76
2022/12/14 02:02:12;;;;;;;40.47;15.95;;;;;;;;;;1040822;28;20017;-78
2022/12/14 02:02:46;;;;;;;12.70;11.45;;;;;;;;;;1042801;28;20028;-80
2022/12/14 02:03:25;;;;;;;13.38;12.00;;;;;;;;;;1038217;28;20029;-81
2022/12/14 02:03:56;;;;;;;10.77;9.15;;;;;;;;;;1039907;28;20112;-79
2022/12/14 02:04:27;;;;;;;15.20;13.32;;;;;;;;;;1042604;28;20025;-77
2022/12/14 02:04:59;;;;;;;23.05;14.30;;;;;;;;;;1040208;28;20022;-79
2022/12/14 02:05:31;;;;;;;14.70;12.65;;;;;;;;;;1036425;28;20073;-80
2022/12/14 02:06:04;;;;;;;21.98;14.27;;;;;;;;;;1035763;28;20071;-80
2022/12/14 02:06:36;;;;;;;12.68;9.90;;;;;;;;;;1035899;28;20034;-79
2022/12/14 02:07:08;;;;;;;20.00;9.57;;;;;;;;;;1038607;28;20055;-79
2022/12/14 02:07:41;;;;;;;25.58;14.90;;;;;;;;;;1040010;28;20382;-79
2022/12/14 02:08:12;;;;;;;16.58;9.95;;;;;;;;;;1042100;28;20051;-84
2022/12/14 02:08:44;;;;;;;9.75;8.93;;;;;;;;;;1040428;28;20055;-81
2022/12/14 02:09:17;;;;;;;9.40;8.68;;;;;;;;;;1036113;28;20028;-76
2022/12/14 02:09:49;;;;;;;18.77;11.15;;;;;;;;;;1031638;28;20030;-81
2022/12/14 02:10:21;;;;;;;15.50;13.38;;;;;;;;;;1036547;28;20027;-82
2022/12/14 02:10:53;;;;;;;17.98;11.77;;;;;;;;;;1034432;28;20030;-80
2022/12/14 02:11:42;;;;;;;16.73;11.60;;;;;;;;;;1038031;28;20022;-75
2022/12/14 02:12:24;;;;;;;11.68;10.30;;;;;;;;;;1037860;28;20121;-78
2022/12/14 02:12:59;;;;;;;9.88;9.13;;;;;;;;;;1041098;28;20025;-80
2022/12/14 02:13:34;;;;;;;14.27;13.00;;;;;;;;;;1040146;28;20400;-79
2022/12/14 02:14:05;;;;;;;13.13;10.73;;;;;;;;;;1038923;28;20039;-81
2022/12/14 02:14:36;;;;;;;12.77;11.50;;;;;;;;;;1036963;28;20076;-83
2022/12/14 02:15:06;;;;;;;24.55;16.98;;;;;;;;;;1035138;28;20435;-81
2022/12/14 02:15:38;;;;;;;18.27;9.88;;;;;;;;;;1037491;28;20021;-87
2022/12/14 02:48:17;;;;;;;15.77;6.75;;;;;;;;;;1003428;22;20124;-81
2022/12/14 02:49:11;;;;;;;10.77;9.63;;;;;;;;;;1040418;28;20061;-82
2022/12/14 02:50:58;;;;;;;9.30;8.60;;;;;;;;;;1052567;23;20064;-82
2022/12/14 02:51:49;;;;;;;24.25;12.85;;;;;;;;;;1045708;28;20037;-82
2022/12/14 02:52:23;;;;;;;12.35;10.27;;;;;;;;;;1027182;28;20211;-82
2022/12/14 02:53:14;;;;;;;9.95;9.18;;;;;;;;;;1041644;28;20021;-82
2022/12/14 02:53:56;;;;;;;35.65;18.75;;;;;;;;;;1028098;28;20031;-82
2022/12/14 02:54:47;;;;;;;12.35;11.13;;;;;;;;;;1046567;28;20021;-83
2022/12/14 02:55:27;;;;;;;9.25;8.48;;;;;;;;;;1034875;28;20034;-83
2022/12/14 02:56:00;;;;;;;18.33;16.60;;;;;;;;;;1039759;28;20028;-82
2022/12/14 02:56:37;;;;;;;13.90;12.50;;;;;;;;;;1044698;28;20048;-82
2022/12/14 02:57:08;;;;;;;16.55;15.27;;;;;;;;;;1040895;28;20025;-82
2022/12/14 02:57:39;;;;;;;11.32;10.48;;;;;;;;;;1040579;28;20401;-82
2022/12/14 02:58:13;;;;;;;19.10;10.15;;;;;;;;;;1043347;28;20021;-83
2022/12/14 02:58:49;;;;;;;11.50;9.60;;;;;;;;;;1043126;28;20029;-83
2022/12/14 02:59:20;;;;;;;21.30;9.35;;;;;;;;;;1037112;28;20130;-83
2022/12/14 02:59:53;;;;;;;21.70;12.02;;;;;;;;;;1033602;28;20026;-83
2022/12/14 03:00:24;;;;;;;13.60;10.40;;;;;;;;;;1117961;23;20005;-83
2022/12/14 03:00:55;;;;;;;15.10;12.40;;;;;;;;;;1034623;28;20145;-83
2022/12/14 04:49:01;;;;;;;7.20;5.95;;;;;;;;;;1039978;28;19982;-80
2022/12/14 04:49:37;;;;;;;11.52;10.48;;;;;;;;;;1042353;28;20025;-80
2022/12/14 04:50:08;;;;;;;12.05;9.55;;;;;;;;;;1035762;28;20028;-80
2022/12/14 05:29:20;;;;;;;;;;;;;;;;;;767474;23;21344;-77
2022/12/14 05:30:37;;;;;;;11.20;8.07;;;;;;;;;;1041603;23;20068;-81
2022/12/14 05:31:09;;;;;;;10.55;7.85;;;;;;;;;;1040154;28;20032;-80
2022/12/14 05:31:40;;;;;;;12.50;10.02;;;;;;;;;;1029602;28;20567;-86
2022/12/14 05:32:12;;;;;;;14.45;6.85;;;;;;;;;;1031007;28;20054;-76
2022/12/14 05:32:43;;;;;;;44.30;6.95;;;;;;;;;;1025919;28;20474;-84
2022/12/14 05:35:22;;;;;;;5.97;4.75;;;;;;;;;;1040919;28;19931;-80
2022/12/14 05:36:21;;;;;;;6.93;6.38;;;;;;;;;;1034759;28;20037;-80
2022/12/14 05:37:03;;;;;;;10.38;8.25;;;;;;;;;;1036389;28;20089;-80
2022/12/14 06:17:55;;;;;;;12.27;10.63;;;;;;;;;;916357;28;3131903;-76
2022/12/14 06:18:26;;;;;;;9.40;8.50;;;;;;;;;;1027100;28;20376;-76
2022/12/14 06:18:58;;;;;;;7.80;7.10;;;;;;;;;;1001938;28;20523;-78
2022/12/14 06:19:29;;;;;;;9.60;8.82;;;;;;;;;;1024892;28;20023;-77
2022/12/14 06:20:01;;;;;;;23.25;11.73;;;;;;;;;;1023537;28;20108;-82
2022/12/14 06:20:32;;;;;;;15.45;9.52;;;;;;;;;;1029365;28;20074;-77
2022/12/14 06:21:04;;;;;;;9.15;8.23;;;;;;;;;;1030560;28;20034;-79
2022/12/14 06:21:36;;;;;;;5.47;4.88;;;;;;;;;;1032098;28;20026;-78
2022/12/14 06:22:07;;;;;;;13.00;9.57;;;;;;;;;;1035222;28;20572;-77
2022/12/14 06:22:42;;;;;;;9.75;8.77;;;;;;;;;;1029747;28;20660;-78
2022/12/14 06:23:13;;;;;;;6.60;5.97;;;;;;;;;;1027929;28;20030;-77
2022/12/14 06:23:44;;;;;;;6.65;5.50;;;;;;;;;;1028637;28;20102;-77
2022/12/14 06:24:15;;;;;;;24.38;13.32;;;;;;;;;;1028119;28;20027;-78
2022/12/14 06:24:46;;;;;;;15.75;11.18;;;;;;;;;;1028573;28;20183;-78
2022/12/14 06:25:20;;;;;;;14.40;12.95;;;;;;;;;;1033061;28;20491;-78
2022/12/14 06:25:54;;;;;;;22.33;12.68;;;;;;;;;;1030516;28;20030;-77
2022/12/14 06:26:26;;;;;;;12.30;10.82;;;;;;;;;;1031815;28;20041;-78
2022/12/14 06:26:57;;;;;;;10.30;9.40;;;;;;;;;;1029971;28;20510;-81
2022/12/14 06:27:28;;;;;;;14.98;10.80;;;;;;;;;;1031263;28;20490;-78
2022/12/14 06:27:59;;;;;;;10.20;9.20;;;;;;;;;;1029592;28;20037;-76
2022/12/14 06:28:30;;;;;;;12.35;10.77;;;;;;;;;;1034656;28;20738;-79
2022/12/14 06:29:00;;;;;;;23.70;10.63;;;;;;;;;;1036241;28;20084;-79
2022/12/14 06:29:31;;;;;;;11.57;10.73;;;;;;;;;;1034036;28;20172;-80
2022/12/14 06:30:02;;;;;;;6.53;6.03;;;;;;;;;;1035262;28;20401;-78
2022/12/14 06:30:33;;;;;;;11.00;10.00;;;;;;;;;;1038277;28;20352;-81
2022/12/14 06:31:05;;;;;;;14.77;10.75;;;;;;;;;;1033085;28;20033;-81
2022/12/14 06:31:37;;;;;;;9.38;8.38;;;;;;;;;;1031111;28;20067;-80
2022/12/14 06:32:07;;;;;;;11.25;7.60;;;;;;;;;;1028268;28;20514;-81
2022/12/14 06:32:42;;;;;;;10.98;9.50;;;;;;;;;;1027106;28;20382;-80
2022/12/14 06:33:16;;;;;;;7.70;7.13;;;;;;;;;;1028116;28;20053;-79
2022/12/14 06:33:48;;;;;;;13.15;8.02;;;;;;;;;;1030656;28;20089;-79
2022/12/14 06:34:19;;;;;;;8.05;7.22;;;;;;;;;;1036414;28;20026;-80
2022/12/14 06:34:53;;;;;;;4.20;3.88;;;;;;;;;;1032331;28;20120;-80
2022/12/14 06:35:24;;;;;;;9.38;8.57;;;;;;;;;;1033815;28;20799;-80
2022/12/14 06:35:59;;;;;;;8.43;7.50;;;;;;;;;;1029756;28;20600;-81
2022/12/14 06:36:33;;;;;;;14.77;8.25;;;;;;;;;;1028955;28;20026;-78
2022/12/14 06:37:05;;;;;;;11.93;9.40;;;;;;;;;;1026500;28;20054;-81
2022/12/14 06:37:36;;;;;;;13.95;10.82;;;;;;;;;;1026307;28;20027;-81
2022/12/14 06:38:07;;;;;;;9.15;8.32;;;;;;;;;;1028219;28;20395;-80
2022/12/14 06:38:39;;;;;;;15.93;11.10;;;;;;;;;;1028752;28;20394;-78
2022/12/14 06:39:12;;;;;;;10.45;8.48;;;;;;;;;;1029684;28;20046;-78
2022/12/14 06:39:43;;;;;;;12.10;10.15;;;;;;;;;;1033648;28;20032;-78
2022/12/14 06:40:14;;;;;;;6.22;5.72;;;;;;;;;;1035224;28;20535;-78
2022/12/14 06:40:47;;;;;;;10.60;9.48;;;;;;;;;;1033042;28;20156;-79
2022/12/14 06:41:19;;;;;;;10.05;9.25;;;;;;;;;;1030499;28;20058;-79
2022/12/14 06:41:52;;;;;;;19.92;11.75;;;;;;;;;;1027983;28;20038;-80
2022/12/14 06:42:26;;;;;;;7.20;6.60;;;;;;;;;;1028795;28;20022;-80
2022/12/14 06:42:57;;;;;;;11.88;10.10;;;;;;;;;;1029666;28;20235;-78
2022/12/14 06:43:30;;;;;;;21.23;12.45;;;;;;;;;;1035287;28;20053;-79
2022/12/14 06:44:04;;;;;;;17.35;8.98;;;;;;;;;;1029890;28;20089;-79
2022/12/14 06:44:36;;;;;;;9.30;8.50;;;;;;;;;;1027657;28;20019;-79
2022/12/14 06:45:06;;;;;;;16.92;10.20;;;;;;;;;;1031151;28;20121;-78
2022/12/14 06:45:40;;;;;;;10.65;9.77;;;;;;;;;;1030903;28;20319;-79
2022/12/14 06:46:13;;;;;;;16.65;11.50;;;;;;;;;;1035052;28;20026;-78
2022/12/14 06:46:46;;;;;;;8.18;7.43;;;;;;;;;;1039117;28;20075;-80
2022/12/14 06:47:17;;;;;;;15.05;9.82;;;;;;;;;;1038146;28;20036;-79
2022/12/14 06:47:47;;;;;;;17.42;10.45;;;;;;;;;;1039308;28;20045;-78
2022/12/14 06:48:18;;;;;;;19.95;11.23;;;;;;;;;;1039425;28;20029;-78
2022/12/14 06:48:51;;;;;;;22.83;13.80;;;;;;;;;;1034319;28;20400;-75
2022/12/14 06:49:22;;;;;;;35.92;11.10;;;;;;;;;;1035195;28;20455;-76
2022/12/14 06:49:53;;;;;;;8.38;7.63;;;;;;;;;;1035949;28;20330;-79
2022/12/14 06:50:24;;;;;;;14.15;8.40;;;;;;;;;;1032971;28;20038;-79
2022/12/14 06:50:59;;;;;;;13.32;9.88;;;;;;;;;;1030329;28;20157;-78
2022/12/14 06:51:30;;;;;;;8.88;8.07;;;;;;;;;;1031716;28;20495;-74
2022/12/14 06:52:01;;;;;;;7.05;6.55;;;;;;;;;;1031776;28;21541;-74
2022/12/14 06:52:32;;;;;;;8.02;7.28;;;;;;;;;;1034809;28;20061;-77
2022/12/14 06:53:03;;;;;;;21.10;10.95;;;;;;;;;;1032338;28;20501;-75